This is the latest recevied weather packets stored in our database for station/object HS8AFA. If no packets are shown the sender has not sent any weather packets the latest 10 day(s).
| Time | Temp. | Humidity | Pressure | Rain* | Wind** | Luminosity | Snow |
|---|---|---|---|---|---|---|---|
| 1777420216 | 27.78° C | 100% | 1010.2 hPa | 0 mm | - | - | - |
| 1777419618 | 27.78° C | 100% | 1010 hPa | 0 mm | - | - | - |
| 1777414819 | 28.33° C | 100% | 1009.6 hPa | 0 mm | - | - | - |
| 1777401617 | 29.44° C | 100% | 1009.8 hPa | 0 mm | - | - | - |
| 1777397439 | 30° C | 100% | 1010.8 hPa | 0 mm | - | - | - |
| 1777390817 | 31.11° C | 100% | 1010.9 hPa | 0 mm | - | - | - |
| 1777388420 | 31.11° C | 100% | 1010.7 hPa | 0 mm | - | - | - |
| 1777387216 | 31.67° C | 100% | 1010.5 hPa | 0 mm | - | - | - |
| 1777384841 | 32.22° C | 100% | 1009.9 hPa | 0 mm | - | - | - |
| 1777381219 | 32.78° C | 92% | 1008.8 hPa | 0 mm | - | - | - |
| 1777377040 | 34.44° C | 90% | 1007.6 hPa | 0 mm | - | - | - |
| 1777371618 | 35.56° C | 76% | 1006.4 hPa | 0 mm | - | - | - |
| 1777362020 | 36.67° C | 91% | 1007.8 hPa | 0 mm | - | - | - |
| 1777359019 | 36.11° C | 94% | 1008.1 hPa | 0 mm | - | - | - |
| 1777358419 | 36.11° C | 92% | 1008.3 hPa | 0 mm | - | - | - |
| 1777357820 | 35.56° C | 93% | 1008.5 hPa | 0 mm | - | - | - |
| 1777357216 | 36.11° C | 94% | 1008.5 hPa | 0 mm | - | - | - |
| 1777354820 | 36.11° C | 80% | 1009.1 hPa | 0 mm | - | - | - |
| 1777354220 | 35.56° C | 82% | 1009.3 hPa | 0 mm | - | - | - |
| 1777353617 | 35.56° C | 84% | 1009.5 hPa | 0 mm | - | - | - |
| 1777351260 | 34.44° C | 91% | 1010.1 hPa | 0 mm | - | - | - |
| 1777350620 | 34.44° C | 91% | 1010.3 hPa | 0 mm | - | - | - |
| 1777350016 | 35° C | 90% | 1010.4 hPa | 0 mm | - | - | - |
| 1777349416 | 34.44° C | 91% | 1010.4 hPa | 0 mm | - | - | - |
| 1777343440 | 32.22° C | 100% | 1010.8 hPa | 0 mm | - | - | - |
* Rain latest hour (hover to see other rain measurements)
** Current wind speed in m/s (hover to see current wind gust speed)